Main page
METAR-TAF:

METAR-TAF

Airports :

Sabadell Airport

Sabadell, Spain

latitude: 41-31N, longitude: 002-06E, elevation: 250 m

Current weather observation

The report was made 27 minutes ago, at 23:30 UTC
Wind 3 kt from the West/Northwest
Temperature 8°C
Humidity 81%
Pressure 1007 hPa
Visibility 10 km or more
no clouds below 1500 m and no cumulonimbus

METAR: LELL 172330Z AUTO 29003KT CAVOK 08/05 Q1007

Time: 00:57 (23:57 UTC)

Forecast

The report was made 9 hours and 57 minutes ago, at 14:00 UTC
Forecast valid from 17 at 15 UTC to 18 at 15 UTC
Wind 7 kt from the West
Visibility 10 km or more
Few clouds at a height of 3000 ft
Probability 30% :
Temporary
from 17 at 20 UTC to 17 at 22 UTC
Broken clouds at a height of 3000 ft
rain

TAF: LELL 171400Z 1715/1815 26007KT 9999 FEW030 TX14/1813Z TN04/1807Z PROB30 TEMPO 1720/1722 RA BKN030

Weather observations and forecasts of more than 4000 airports (METAR and TAF reports).

The available stations are represented by yellow and red dots on the map.

Hover mouse over dot to see the name of the station.

Then click to see weather observations and forecasts.

To change the map : click on the green buttons with a black cross to zoom in, on the green button with a dash to zoom out, or on the green arrows for adjacent maps.


METAR-TAF: